Portada
METAR-TAF:

METAR-TAF

Aeroports :

Harrisburg-Middletown, Pennsilvània, Estats Units d'Amèrica

latitud: 40-11-37N, longitud: 076-45-48W, altitud: 95 m

Observació

L'informe es va fer fa 51 minuts, a les 15:56 UTC
Vent 3 kt del Oest
Temperatura 8°C
Humitat 53%
Pressió 1024 hPa
Visibilitat: 16.1 km
Núvols disperses a una alçada de 15000 ft

METAR: KMDT 211556Z 28003KT 10SM SCT150 08/M01 A3024 RMK AO2 SLP241 T00831006

Hora: 11:47 (16:47 UTC)

Pronòstic

L'informe es va fer fa 5 hores i 1 minuts, a les 11:46 UTC
Pronòstic vàlid del 21 a les 12 UTC al 22 a les 12 UTC
Vent 7 kt del Oest/Nord-Oest
Visibilitat: 10 km
Núvols disperses a una alçada de 3500 ft
A partir de les 21 a les 1700 UTC
Vent 5 kt del Sud
Visibilitat: 10 km
Cel ennuvolat a una alçada de 12000 ft
A partir de les 22 a les 0500 UTC
Vent 3 kt del Sud/Sud-Est
Visibilitat: 10 km
Cel cobert a una alçada de 5000 ft

TAF: KMDT 211146Z 2112/2212 30007KT P6SM SCT035 FM211700 19005KT P6SM BKN120 FM220500 15003KT P6SM OVC050

Observacions i pronòstics meteorològics de més de 4000 aeroports (METAR i TAF).

Les estacions disponibles són els punts grocs i vermells al mapa.

Posi el ratolí al punt desitjat per veure el nom de l'estació.

Feu clic per veure les observacions i els pronòstics meteorològics.

Per canviar el mapa: feu clic els botons verds amb una creu de color negre per apropar; al botó verd amb un guió per allunyar la imatge; o en les fletxes verdes per a mapes adjacents.


METAR-TAF: